sensor_id;sensor_type;location;lat;lon;timestamp;pressure;altitude;pressure_sealevel;temperature
71960;BMP280;59832;51.146;14.024;2024-02-14T00:01:59;98597.03;;;0.73
71960;BMP280;59832;51.146;14.024;2024-02-14T00:04:25;98595.03;;;0.75
71960;BMP280;59832;51.146;14.024;2024-02-14T00:06:52;98594.06;;;1.05
71960;BMP280;59832;51.146;14.024;2024-02-14T00:09:19;98595.34;;;1.03
71960;BMP280;59832;51.146;14.024;2024-02-14T00:11:46;98592.59;;;0.99
71960;BMP280;59832;51.146;14.024;2024-02-14T00:14:13;98583.09;;;0.96
71960;BMP280;59832;51.146;14.024;2024-02-14T00:16:39;98589.59;;;0.97
71960;BMP280;59832;51.146;14.024;2024-02-14T00:19:06;98593.88;;;0.97
71960;BMP280;59832;51.146;14.024;2024-02-14T00:21:32;98584.72;;;0.82
71960;BMP280;59832;51.146;14.024;2024-02-14T00:24:00;98588.19;;;0.86
71960;BMP280;59832;51.146;14.024;2024-02-14T00:26:28;98582.66;;;0.89
71960;BMP280;59832;51.146;14.024;2024-02-14T00:28:54;98582.88;;;0.93
71960;BMP280;59832;51.146;14.024;2024-02-14T00:31:21;98582.34;;;0.96
71960;BMP280;59832;51.146;14.024;2024-02-14T00:33:47;98579.84;;;0.96
71960;BMP280;59832;51.146;14.024;2024-02-14T00:36:14;98576.50;;;1.10
71960;BMP280;59832;51.146;14.024;2024-02-14T00:38:41;98578.69;;;1.17
71960;BMP280;59832;51.146;14.024;2024-02-14T00:41:07;98585.41;;;1.22
71960;BMP280;59832;51.146;14.024;2024-02-14T00:43:34;98588.16;;;1.25
71960;BMP280;59832;51.146;14.024;2024-02-14T00:46:00;98591.94;;;1.23
71960;BMP280;59832;51.146;14.024;2024-02-14T00:48:27;98585.66;;;1.25
71960;BMP280;59832;51.146;14.024;2024-02-14T00:50:54;98585.91;;;1.24
71960;BMP280;59832;51.146;14.024;2024-02-14T00:53:20;98585.38;;;1.27
71960;BMP280;59832;51.146;14.024;2024-02-14T00:55:47;98593.13;;;1.30
71960;BMP280;59832;51.146;14.024;2024-02-14T00:58:13;98590.75;;;1.68
71960;BMP280;59832;51.146;14.024;2024-02-14T01:00:40;98591.56;;;1.63
71960;BMP280;59832;51.146;14.024;2024-02-14T01:03:06;98589.84;;;1.59
71960;BMP280;59832;51.146;14.024;2024-02-14T01:05:34;98584.81;;;1.59
71960;BMP280;59832;51.146;14.024;2024-02-14T01:08:01;98579.31;;;1.57
71960;BMP280;59832;51.146;14.024;2024-02-14T01:10:27;98578.78;;;1.60
71960;BMP280;59832;51.146;14.024;2024-02-14T01:12:54;98584.03;;;1.63
71960;BMP280;59832;51.146;14.024;2024-02-14T01:15:21;98578.22;;;1.68
71960;BMP280;59832;51.146;14.024;2024-02-14T01:17:48;98582.22;;;1.69
71960;BMP280;59832;51.146;14.024;2024-02-14T01:20:15;98578.97;;;1.68
71960;BMP280;59832;51.146;14.024;2024-02-14T01:22:42;98572.59;;;1.76
71960;BMP280;59832;51.146;14.024;2024-02-14T01:25:08;98576.34;;;1.78
71960;BMP280;59832;51.146;14.024;2024-02-14T01:27:36;98571.59;;;1.77
71960;BMP280;59832;51.146;14.024;2024-02-14T01:30:03;98574.84;;;1.77
71960;BMP280;59832;51.146;14.024;2024-02-14T01:32:32;98573.34;;;1.76
71960;BMP280;59832;51.146;14.024;2024-02-14T01:34:58;98577.13;;;1.74
71960;BMP280;59832;51.146;14.024;2024-02-14T01:37:27;98569.09;;;1.77
71960;BMP280;59832;51.146;14.024;2024-02-14T01:39:55;98574.59;;;1.79
71960;BMP280;59832;51.146;14.024;2024-02-14T01:42:22;98578.88;;;1.78
71960;BMP280;59832;51.146;14.024;2024-02-14T01:44:48;98573.09;;;1.78
71960;BMP280;59832;51.146;14.024;2024-02-14T01:47:15;98576.53;;;2.06
71960;BMP280;59832;51.146;14.024;2024-02-14T01:49:42;98569.91;;;1.91
71960;BMP280;59832;51.146;14.024;2024-02-14T01:52:11;98571.41;;;1.92
71960;BMP280;59832;51.146;14.024;2024-02-14T01:54:37;98564.75;;;1.82
71960;BMP280;59832;51.146;14.024;2024-02-14T01:57:04;98567.13;;;1.92
71960;BMP280;59832;51.146;14.024;2024-02-14T01:59:34;98570.38;;;1.93
71960;BMP280;59832;51.146;14.024;2024-02-14T02:02:04;98565.38;;;1.93
71960;BMP280;59832;51.146;14.024;2024-02-14T02:04:34;98569.13;;;1.96
71960;BMP280;59832;51.146;14.024;2024-02-14T02:07:01;98565.47;;;2.07
71960;BMP280;59832;51.146;14.024;2024-02-14T02:09:27;98563.25;;;2.05
71960;BMP280;59832;51.146;14.024;2024-02-14T02:11:54;98561.03;;;2.22
71960;BMP280;59832;51.146;14.024;2024-02-14T02:14:22;98558.78;;;2.21
71960;BMP280;59832;51.146;14.024;2024-02-14T02:16:48;98555.38;;;2.12
71960;BMP280;59832;51.146;14.024;2024-02-14T02:19:18;98556.38;;;2.29
71960;BMP280;59832;51.146;14.024;2024-02-14T02:21:45;98556.88;;;2.13
71960;BMP280;59832;51.146;14.024;2024-02-14T02:24:14;98552.38;;;2.10
71960;BMP280;59832;51.146;14.024;2024-02-14T02:26:41;98560.50;;;2.02
71960;BMP280;59832;51.146;14.024;2024-02-14T02:29:08;98555.69;;;2.05
71960;BMP280;59832;51.146;14.024;2024-02-14T02:31:35;98560.09;;;1.94
71960;BMP280;59832;51.146;14.024;2024-02-14T02:34:01;98558.66;;;1.88
71960;BMP280;59832;51.146;14.024;2024-02-14T02:36:28;98552.44;;;1.86
71960;BMP280;59832;51.146;14.024;2024-02-14T02:38:56;98553.50;;;1.80
71960;BMP280;59832;51.146;14.024;2024-02-14T02:41:24;98556.47;;;1.82
71960;BMP280;59832;51.146;14.024;2024-02-14T02:43:51;98555.00;;;1.81
71960;BMP280;59832;51.146;14.024;2024-02-14T02:46:17;98551.75;;;1.80
71960;BMP280;59832;51.146;14.024;2024-02-14T02:48:44;98552.44;;;1.86
71960;BMP280;59832;51.146;14.024;2024-02-14T02:51:10;98549.53;;;1.98
71960;BMP280;59832;51.146;14.024;2024-02-14T02:53:37;98550.88;;;1.90
71960;BMP280;59832;51.146;14.024;2024-02-14T02:56:04;98552.28;;;1.96
71960;BMP280;59832;51.146;14.024;2024-02-14T02:58:31;98551.13;;;1.88
71960;BMP280;59832;51.146;14.024;2024-02-14T03:00:58;98543.41;;;1.85
71960;BMP280;59832;51.146;14.024;2024-02-14T03:03:24;98547.66;;;1.84
71960;BMP280;59832;51.146;14.024;2024-02-14T03:05:53;98542.47;;;1.81
71960;BMP280;59832;51.146;14.024;2024-02-14T03:08:21;98544.47;;;1.79
71960;BMP280;59832;51.146;14.024;2024-02-14T03:10:52;98535.94;;;1.80
71960;BMP280;59832;51.146;14.024;2024-02-14T03:13:18;98526.69;;;1.75
71960;BMP280;59832;51.146;14.024;2024-02-14T03:15:46;98527.44;;;1.76
71960;BMP280;59832;51.146;14.024;2024-02-14T03:18:13;98531.94;;;1.79
71960;BMP280;59832;51.146;14.024;2024-02-14T03:20:39;98526.94;;;1.74
71960;BMP280;59832;51.146;14.024;2024-02-14T03:23:06;98530.50;;;1.73
71960;BMP280;59832;51.146;14.024;2024-02-14T03:25:32;98529.25;;;1.70
71960;BMP280;59832;51.146;14.024;2024-02-14T03:27:59;98529.94;;;1.76
71960;BMP280;59832;51.146;14.024;2024-02-14T03:30:25;98527.94;;;1.78
71960;BMP280;59832;51.146;14.024;2024-02-14T03:32:52;98531.72;;;1.75
71960;BMP280;59832;51.146;14.024;2024-02-14T03:35:19;98529.25;;;1.70
71960;BMP280;59832;51.146;14.024;2024-02-14T03:37:47;98531.78;;;1.70
71960;BMP280;59832;51.146;14.024;2024-02-14T03:40:15;98539.34;;;1.65
71960;BMP280;59832;51.146;14.024;2024-02-14T03:42:41;98528.84;;;1.63
71960;BMP280;59832;51.146;14.024;2024-02-14T03:45:08;98537.38;;;1.62
71960;BMP280;59832;51.146;14.024;2024-02-14T03:47:35;98540.16;;;1.61
71960;BMP280;59832;51.146;14.024;2024-02-14T03:50:07;98533.16;;;1.58
71960;BMP280;59832;51.146;14.024;2024-02-14T03:52:33;98528.63;;;1.60
71960;BMP280;59832;51.146;14.024;2024-02-14T03:55:00;98526.13;;;1.60
71960;BMP280;59832;51.146;14.024;2024-02-14T03:57:27;98527.66;;;1.56
71960;BMP280;59832;51.146;14.024;2024-02-14T03:59:59;98530.19;;;1.56
71960;BMP280;59832;51.146;14.024;2024-02-14T04:02:27;98520.88;;;1.56
71960;BMP280;59832;51.146;14.024;2024-02-14T04:04:55;98528.69;;;1.54
71960;BMP280;59832;51.146;14.024;2024-02-14T04:07:21;98520.66;;;1.52
71960;BMP280;59832;51.146;14.024;2024-02-14T04:09:48;98517.41;;;1.52
71960;BMP280;59832;51.146;14.024;2024-02-14T04:12:15;98525.88;;;1.56
71960;BMP280;59832;51.146;14.024;2024-02-14T04:14:41;98519.84;;;1.57
71960;BMP280;59832;51.146;14.024;2024-02-14T04:17:08;98524.25;;;1.70
71960;BMP280;59832;51.146;14.024;2024-02-14T04:19:35;98515.47;;;1.68
71960;BMP280;59832;51.146;14.024;2024-02-14T04:22:01;98512.88;;;1.78
71960;BMP280;59832;51.146;14.024;2024-02-14T04:24:28;98520.41;;;1.78
71960;BMP280;59832;51.146;14.024;2024-02-14T04:26:54;98509.84;;;1.81
71960;BMP280;59832;51.146;14.024;2024-02-14T04:29:24;98515.44;;;1.91
71960;BMP280;59832;51.146;14.024;2024-02-14T04:31:50;98505.84;;;1.99
71960;BMP280;59832;51.146;14.024;2024-02-14T04:34:18;98502.91;;;2.10
71960;BMP280;59832;51.146;14.024;2024-02-14T04:36:46;98500.47;;;2.05
71960;BMP280;59832;51.146;14.024;2024-02-14T04:39:12;98498.22;;;2.04
71960;BMP280;59832;51.146;14.024;2024-02-14T04:41:39;98492.84;;;2.10
71960;BMP280;59832;51.146;14.024;2024-02-14T04:44:22;98489.34;;;2.11
71960;BMP280;59832;51.146;14.024;2024-02-14T04:46:49;98491.84;;;2.11
71960;BMP280;59832;51.146;14.024;2024-02-14T04:49:15;98499.63;;;2.10
71960;BMP280;59832;51.146;14.024;2024-02-14T04:51:42;98506.16;;;2.11
71960;BMP280;59832;51.146;14.024;2024-02-14T04:54:08;98502.50;;;2.22
71960;BMP280;59832;51.146;14.024;2024-02-14T04:56:36;98499.34;;;2.30
71960;BMP280;59832;51.146;14.024;2024-02-14T04:59:02;98499.53;;;2.52
71960;BMP280;59832;51.146;14.024;2024-02-14T05:01:30;98498.72;;;2.57
71960;BMP280;59832;51.146;14.024;2024-02-14T05:03:57;98497.09;;;2.80
71960;BMP280;59832;51.146;14.024;2024-02-14T05:06:24;98490.97;;;2.99
71960;BMP280;59832;51.146;14.024;2024-02-14T05:08:51;98496.06;;;2.94
71960;BMP280;59832;51.146;14.024;2024-02-14T05:11:17;98492.53;;;2.95
71960;BMP280;59832;51.146;14.024;2024-02-14T05:13:44;98494.06;;;3.10
71960;BMP280;59832;51.146;14.024;2024-02-14T05:16:11;98492.56;;;3.23
71960;BMP280;59832;51.146;14.024;2024-02-14T05:18:38;98493.59;;;3.22
71960;BMP280;59832;51.146;14.024;2024-02-14T05:21:06;98494.41;;;3.03
71960;BMP280;59832;51.146;14.024;2024-02-14T05:23:34;98494.22;;;3.00
71960;BMP280;59832;51.146;14.024;2024-02-14T05:26:05;98486.22;;;2.98
71960;BMP280;59832;51.146;14.024;2024-02-14T05:28:32;98498.06;;;3.25
71960;BMP280;59832;51.146;14.024;2024-02-14T05:30:59;98501.72;;;3.19
71960;BMP280;59832;51.146;14.024;2024-02-14T05:33:26;98495.09;;;3.09
71960;BMP280;59832;51.146;14.024;2024-02-14T05:35:53;98498.16;;;3.06
71960;BMP280;59832;51.146;14.024;2024-02-14T05:38:19;98504.09;;;3.24
71960;BMP280;59832;51.146;14.024;2024-02-14T05:40:46;98494.25;;;3.27
71960;BMP280;59832;51.146;14.024;2024-02-14T05:43:13;98497.78;;;3.26
71960;BMP280;59832;51.146;14.024;2024-02-14T05:45:40;98483.44;;;3.27
71960;BMP280;59832;51.146;14.024;2024-02-14T05:48:07;98490.81;;;3.09
71960;BMP280;59832;51.146;14.024;2024-02-14T05:50:34;98490.13;;;3.04
71960;BMP280;59832;51.146;14.024;2024-02-14T05:53:01;98482.41;;;3.00
71960;BMP280;59832;51.146;14.024;2024-02-14T05:55:27;98482.59;;;3.04
71960;BMP280;59832;51.146;14.024;2024-02-14T05:57:54;98481.66;;;3.13
71960;BMP280;59832;51.146;14.024;2024-02-14T06:00:20;98477.84;;;3.02
71960;BMP280;59832;51.146;14.024;2024-02-14T06:02:51;98474.06;;;3.19
71960;BMP280;59832;51.146;14.024;2024-02-14T06:05:17;98460.31;;;3.38
71960;BMP280;59832;51.146;14.024;2024-02-14T06:07:43;98466.75;;;3.31
71960;BMP280;59832;51.146;14.024;2024-02-14T06:10:11;98461.91;;;3.34
71960;BMP280;59832;51.146;14.024;2024-02-14T06:12:37;98465.81;;;3.27
71960;BMP280;59832;51.146;14.024;2024-02-14T06:15:06;98463.31;;;3.40
71960;BMP280;59832;51.146;14.024;2024-02-14T06:17:34;98461.16;;;3.34
71960;BMP280;59832;51.146;14.024;2024-02-14T06:20:00;98462.19;;;3.33
71960;BMP280;59832;51.146;14.024;2024-02-14T06:22:32;98467.31;;;3.41
71960;BMP280;59832;51.146;14.024;2024-02-14T06:25:00;98465.81;;;3.40
71960;BMP280;59832;51.146;14.024;2024-02-14T06:27:26;98473.28;;;3.32
71960;BMP280;59832;51.146;14.024;2024-02-14T06:29:54;98473.19;;;3.37
71960;BMP280;59832;51.146;14.024;2024-02-14T06:32:21;98473.72;;;3.61
71960;BMP280;59832;51.146;14.024;2024-02-14T06:34:47;98477.25;;;3.60
71960;BMP280;59832;51.146;14.024;2024-02-14T06:37:14;98478.84;;;3.70
71960;BMP280;59832;51.146;14.024;2024-02-14T06:39:40;98487.22;;;3.65
71960;BMP280;59832;51.146;14.024;2024-02-14T06:42:07;98488.25;;;3.64
71960;BMP280;59832;51.146;14.024;2024-02-14T06:44:33;98486.84;;;3.58
71960;BMP280;59832;51.146;14.024;2024-02-14T06:47:01;98491.69;;;3.68
71960;BMP280;59832;51.146;14.024;2024-02-14T06:49:28;98494.28;;;3.77
71960;BMP280;59832;51.146;14.024;2024-02-14T06:51:55;98493.47;;;3.68
71960;BMP280;59832;51.146;14.024;2024-02-14T06:54:21;98491.97;;;3.67
71960;BMP280;59832;51.146;14.024;2024-02-14T06:56:48;98497.44;;;3.82
71960;BMP280;59832;51.146;14.024;2024-02-14T06:59:14;98493.59;;;3.85
71960;BMP280;59832;51.146;14.024;2024-02-14T07:01:41;98499.94;;;3.82
71960;BMP280;59832;51.146;14.024;2024-02-14T07:04:07;98497.88;;;3.84
71960;BMP280;59832;51.146;14.024;2024-02-14T07:06:34;98489.09;;;3.96
71960;BMP280;59832;51.146;14.024;2024-02-14T07:09:01;98494.59;;;3.98
71960;BMP280;59832;51.146;14.024;2024-02-14T07:11:27;98487.59;;;3.94
71960;BMP280;59832;51.146;14.024;2024-02-14T07:13:54;98496.31;;;4.11
71960;BMP280;59832;51.146;14.024;2024-02-14T07:16:20;98493.38;;;3.95
71960;BMP280;59832;51.146;14.024;2024-02-14T07:18:46;98489.84;;;3.96
71960;BMP280;59832;51.146;14.024;2024-02-14T07:21:13;98481.03;;;4.07
71960;BMP280;59832;51.146;14.024;2024-02-14T07:23:39;98480.66;;;4.14
71960;BMP280;59832;51.146;14.024;2024-02-14T07:26:06;98486.91;;;4.25
71960;BMP280;59832;51.146;14.024;2024-02-14T07:28:32;98487.38;;;4.27
71960;BMP280;59832;51.146;14.024;2024-02-14T07:30:59;98483.97;;;4.23
71960;BMP280;59832;51.146;14.024;2024-02-14T07:33:25;98484.59;;;4.28
71960;BMP280;59832;51.146;14.024;2024-02-14T07:35:52;98492.38;;;4.41
71960;BMP280;59832;51.146;14.024;2024-02-14T07:38:18;98486.03;;;4.52
71960;BMP280;59832;51.146;14.024;2024-02-14T07:40:45;98481.22;;;4.64
71960;BMP280;59832;51.146;14.024;2024-02-14T07:43:11;98474.47;;;4.51
71960;BMP280;59832;51.146;14.024;2024-02-14T07:45:38;98471.41;;;4.62
71960;BMP280;59832;51.146;14.024;2024-02-14T07:48:05;98471.13;;;4.64
71960;BMP280;59832;51.146;14.024;2024-02-14T07:50:31;98460.16;;;4.68
71960;BMP280;59832;51.146;14.024;2024-02-14T07:52:58;98461.97;;;4.76
71960;BMP280;59832;51.146;14.024;2024-02-14T07:55:24;98455.06;;;4.91
71960;BMP280;59832;51.146;14.024;2024-02-14T07:57:51;98451.63;;;4.95
71960;BMP280;59832;51.146;14.024;2024-02-14T08:00:18;98448.88;;;5.05
71960;BMP280;59832;51.146;14.024;2024-02-14T08:02:49;98445.03;;;5.16
71960;BMP280;59832;51.146;14.024;2024-02-14T08:05:16;98446.63;;;5.12
71960;BMP280;59832;51.146;14.024;2024-02-14T08:07:44;98447.38;;;5.13
71960;BMP280;59832;51.146;14.024;2024-02-14T08:10:11;98447.38;;;5.13
71960;BMP280;59832;51.146;14.024;2024-02-14T08:12:37;98442.06;;;5.23
71960;BMP280;59832;51.146;14.024;2024-02-14T08:15:04;98439.69;;;5.27
71960;BMP280;59832;51.146;14.024;2024-02-14T08:17:33;98436.84;;;5.20
71960;BMP280;59832;51.146;14.024;2024-02-14T08:20:01;98445.63;;;5.31
71960;BMP280;59832;51.146;14.024;2024-02-14T08:22:27;98441.91;;;5.28
71960;BMP280;59832;51.146;14.024;2024-02-14T08:24:54;98438.53;;;5.24
71960;BMP280;59832;51.146;14.024;2024-02-14T08:27:22;98427.81;;;5.27
71960;BMP280;59832;51.146;14.024;2024-02-14T08:29:48;98435.06;;;5.29
71960;BMP280;59832;51.146;14.024;2024-02-14T08:32:15;98433.59;;;5.45
71960;BMP280;59832;51.146;14.024;2024-02-14T08:34:41;98438.66;;;5.53
71960;BMP280;59832;51.146;14.024;2024-02-14T08:37:08;98437.63;;;5.63
71960;BMP280;59832;51.146;14.024;2024-02-14T08:39:34;98438.53;;;5.67
71960;BMP280;59832;51.146;14.024;2024-02-14T08:42:02;98432.16;;;5.70
71960;BMP280;59832;51.146;14.024;2024-02-14T08:44:35;98441.19;;;5.71
71960;BMP280;59832;51.146;14.024;2024-02-14T08:47:01;98430.94;;;5.67
71960;BMP280;59832;51.146;14.024;2024-02-14T08:49:27;98432.28;;;5.56
71960;BMP280;59832;51.146;14.024;2024-02-14T08:51:54;98419.06;;;5.59
71960;BMP280;59832;51.146;14.024;2024-02-14T08:54:21;98424.41;;;5.66
71960;BMP280;59832;51.146;14.024;2024-02-14T08:56:49;98427.38;;;5.68
71960;BMP280;59832;51.146;14.024;2024-02-14T08:59:15;98436.13;;;5.71
71960;BMP280;59832;51.146;14.024;2024-02-14T09:01:42;98432.16;;;5.70
71960;BMP280;59832;51.146;14.024;2024-02-14T09:04:08;98434.97;;;5.68
71960;BMP280;59832;51.146;14.024;2024-02-14T09:06:36;98429.31;;;5.54
71960;BMP280;59832;51.146;14.024;2024-02-14T09:09:03;98433.31;;;5.55
71960;BMP280;59832;51.146;14.024;2024-02-14T09:11:30;98432.72;;;5.58
71960;BMP280;59832;51.146;14.024;2024-02-14T09:13:58;98433.03;;;5.56
71960;BMP280;59832;51.146;14.024;2024-02-14T09:16:30;98432.28;;;5.56
71960;BMP280;59832;51.146;14.024;2024-02-14T09:18:57;98427.97;;;5.65
71960;BMP280;59832;51.146;14.024;2024-02-14T09:21:24;98425.00;;;5.63
71960;BMP280;59832;51.146;14.024;2024-02-14T09:23:51;98428.13;;;5.69
71960;BMP280;59832;51.146;14.024;2024-02-14T09:26:18;98416.06;;;5.83
71960;BMP280;59832;51.146;14.024;2024-02-14T09:28:44;98421.34;;;6.07
71960;BMP280;59832;51.146;14.024;2024-02-14T09:31:11;98424.59;;;6.16
71960;BMP280;59832;51.146;14.024;2024-02-14T09:33:38;98424.50;;;6.13
71960;BMP280;59832;51.146;14.024;2024-02-14T09:36:06;98429.06;;;6.19
71960;BMP280;59832;51.146;14.024;2024-02-14T09:38:32;98420.56;;;6.24
71960;BMP280;59832;51.146;14.024;2024-02-14T09:41:15;98428.47;;;6.14
71960;BMP280;59832;51.146;14.024;2024-02-14T09:43:45;98427.59;;;6.10
71960;BMP280;59832;51.146;14.024;2024-02-14T09:46:13;98424.34;;;6.09
71960;BMP280;59832;51.146;14.024;2024-02-14T09:48:45;98427.56;;;6.18
71960;BMP280;59832;51.146;14.024;2024-02-14T09:51:12;98432.56;;;6.35
71960;BMP280;59832;51.146;14.024;2024-02-14T09:53:40;98432.41;;;6.40
71960;BMP280;59832;51.146;14.024;2024-02-14T09:56:09;98427.06;;;6.42
71960;BMP280;59832;51.146;14.024;2024-02-14T09:58:36;98434.16;;;6.49
71960;BMP280;59832;51.146;14.024;2024-02-14T10:01:03;98431.03;;;6.52
71960;BMP280;59832;51.146;14.024;2024-02-14T10:03:31;98434.75;;;6.54
71960;BMP280;59832;51.146;14.024;2024-02-14T10:05:57;98438.91;;;6.50
71960;BMP280;59832;51.146;14.024;2024-02-14T10:08:24;98443.28;;;6.41
71960;BMP280;59832;51.146;14.024;2024-02-14T10:10:52;98432.88;;;6.34
71960;BMP280;59832;51.146;14.024;2024-02-14T10:13:21;98428.78;;;6.21
71960;BMP280;59832;51.146;14.024;2024-02-14T10:15:48;98429.94;;;6.23
71960;BMP280;59832;51.146;14.024;2024-02-14T10:18:15;98435.44;;;6.25
71960;BMP280;59832;51.146;14.024;2024-02-14T10:20:53;98431.38;;;6.41
71960;BMP280;59832;51.146;14.024;2024-02-14T10:23:20;98436.72;;;6.40
71960;BMP280;59832;51.146;14.024;2024-02-14T10:25:48;98440.75;;;6.41
71960;BMP280;59832;51.146;14.024;2024-02-14T10:28:15;98435.69;;;6.32
71960;BMP280;59832;51.146;14.024;2024-02-14T10:30:45;98427.00;;;6.21
71960;BMP280;59832;51.146;14.024;2024-02-14T10:33:12;98434.94;;;6.32
71960;BMP280;59832;51.146;14.024;2024-02-14T10:35:52;98432.28;;;6.37
71960;BMP280;59832;51.146;14.024;2024-02-14T10:38:22;98426.94;;;6.38
71960;BMP280;59832;51.146;14.024;2024-02-14T10:40:49;98420.53;;;6.41
71960;BMP280;59832;51.146;14.024;2024-02-14T10:43:17;98431.66;;;6.40
71960;BMP280;59832;51.146;14.024;2024-02-14T10:45:43;98436.84;;;6.43
71960;BMP280;59832;51.146;14.024;2024-02-14T10:48:12;98430.34;;;6.34
71960;BMP280;59832;51.146;14.024;2024-02-14T10:50:43;98427.56;;;6.27
71960;BMP280;59832;51.146;14.024;2024-02-14T10:53:13;98427.88;;;6.17
71960;BMP280;59832;51.146;14.024;2024-02-14T10:55:40;98423.72;;;6.21
71960;BMP280;59832;51.146;14.024;2024-02-14T10:58:10;98424.56;;;6.33
71960;BMP280;59832;51.146;14.024;2024-02-14T11:00:38;98425.69;;;6.44
71960;BMP280;59832;51.146;14.024;2024-02-14T11:03:04;98426.63;;;6.40
71960;BMP280;59832;51.146;14.024;2024-02-14T11:05:42;98423.69;;;6.29
71960;BMP280;59832;51.146;14.024;2024-02-14T11:08:09;98430.00;;;6.44
71960;BMP280;59832;51.146;14.024;2024-02-14T11:10:37;98429.75;;;6.37
71960;BMP280;59832;51.146;14.024;2024-02-14T11:13:09;98428.91;;;6.62
71960;BMP280;59832;51.146;14.024;2024-02-14T11:15:36;98421.56;;;6.69
71960;BMP280;59832;51.146;14.024;2024-02-14T11:18:04;98426.63;;;6.69
71960;BMP280;59832;51.146;14.024;2024-02-14T11:20:32;98421.06;;;6.55
71960;BMP280;59832;51.146;14.024;2024-02-14T11:23:03;98423.31;;;6.48
71960;BMP280;59832;51.146;14.024;2024-02-14T11:25:35;98425.53;;;6.50
71960;BMP280;59832;51.146;14.024;2024-02-14T11:30:46;98416.84;;;6.59
71960;BMP280;59832;51.146;14.024;2024-02-14T11:33:20;98416.69;;;6.64
71960;BMP280;59832;51.146;14.024;2024-02-14T11:35:51;98417.56;;;6.68
71960;BMP280;59832;51.146;14.024;2024-02-14T11:38:23;98413.44;;;6.64
71960;BMP280;59832;51.146;14.024;2024-02-14T11:40:54;98415.34;;;6.67
71960;BMP280;59832;51.146;14.024;2024-02-14T11:43:24;98409.88;;;6.56
71960;BMP280;59832;51.146;14.024;2024-02-14T11:45:51;98406.13;;;6.62
71960;BMP280;59832;51.146;14.024;2024-02-14T11:48:21;98411.75;;;6.68
71960;BMP280;59832;51.146;14.024;2024-02-14T11:50:48;98405.97;;;6.67
71960;BMP280;59832;51.146;14.024;2024-02-14T11:53:15;98418.19;;;6.86
71960;BMP280;59832;51.146;14.024;2024-02-14T11:55:44;98417.44;;;6.85
71960;BMP280;59832;51.146;14.024;2024-02-14T11:58:14;98423.94;;;6.95
71960;BMP280;59832;51.146;14.024;2024-02-14T12:00:46;98421.84;;;6.97
71960;BMP280;59832;51.146;14.024;2024-02-14T12:03:18;98418.59;;;6.97
71960;BMP280;59832;51.146;14.024;2024-02-14T12:05:46;98419.66;;;7.16
71960;BMP280;59832;51.146;14.024;2024-02-14T12:08:14;98425.63;;;7.12
71960;BMP280;59832;51.146;14.024;2024-02-14T12:10:45;98422.97;;;7.08
71960;BMP280;59832;51.146;14.024;2024-02-14T12:13:22;98423.16;;;7.03
71960;BMP280;59832;51.146;14.024;2024-02-14T12:15:50;98421.84;;;6.97
71960;BMP280;59832;51.146;14.024;2024-02-14T12:18:19;98417.16;;;6.87
71960;BMP280;59832;51.146;14.024;2024-02-14T12:20:47;98424.38;;;6.97
71960;BMP280;59832;51.146;14.024;2024-02-14T12:23:21;98419.16;;;6.81
71960;BMP280;59832;51.146;14.024;2024-02-14T12:25:48;98423.63;;;6.97
71960;BMP280;59832;51.146;14.024;2024-02-14T12:28:19;98423.53;;;6.93
71960;BMP280;59832;51.146;14.024;2024-02-14T12:30:49;98433.53;;;7.10
71960;BMP280;59832;51.146;14.024;2024-02-14T12:33:18;98423.47;;;7.02
71960;BMP280;59832;51.146;14.024;2024-02-14T12:35:46;98426.63;;;6.99
71960;BMP280;59832;51.146;14.024;2024-02-14T12:38:14;98430.78;;;6.95
71960;BMP280;59832;51.146;14.024;2024-02-14T12:40:42;98425.84;;;6.77
71960;BMP280;59832;51.146;14.024;2024-02-14T12:43:09;98426.75;;;6.73
71960;BMP280;59832;51.146;14.024;2024-02-14T12:45:36;98423.56;;;6.84
71960;BMP280;59832;51.146;14.024;2024-02-14T12:48:03;98426.31;;;6.71
71960;BMP280;59832;51.146;14.024;2024-02-14T12:50:31;98424.31;;;6.85
71960;BMP280;59832;51.146;14.024;2024-02-14T12:52:58;98419.84;;;6.91
71960;BMP280;59832;51.146;14.024;2024-02-14T12:55:25;98418.78;;;6.83
71960;BMP280;59832;51.146;14.024;2024-02-14T12:57:52;98426.47;;;6.95
71960;BMP280;59832;51.146;14.024;2024-02-14T13:00:18;98428.09;;;7.00
71960;BMP280;59832;51.146;14.024;2024-02-14T13:02:45;98425.56;;;7.00
71960;BMP280;59832;51.146;14.024;2024-02-14T13:05:12;98424.44;;;7.09
71960;BMP280;59832;51.146;14.024;2024-02-14T13:07:38;98415.44;;;7.20
71960;BMP280;59832;51.146;14.024;2024-02-14T13:10:05;98425.19;;;7.10
71960;BMP280;59832;51.146;14.024;2024-02-14T13:12:31;98419.69;;;7.28
71960;BMP280;59832;51.146;14.024;2024-02-14T13:14:58;98416.78;;;7.39
71960;BMP280;59832;51.146;14.024;2024-02-14T13:17:24;98412.00;;;7.25
71960;BMP280;59832;51.146;14.024;2024-02-14T13:19:52;98428.22;;;7.24
71960;BMP280;59832;51.146;14.024;2024-02-14T13:22:19;98410.31;;;7.29
71960;BMP280;59832;51.146;14.024;2024-02-14T13:24:46;98420.38;;;7.38
71960;BMP280;59832;51.146;14.024;2024-02-14T13:27:12;98410.31;;;7.29
71960;BMP280;59832;51.146;14.024;2024-02-14T13:29:40;98418.03;;;7.33
71960;BMP280;59832;51.146;14.024;2024-02-14T13:32:08;98411.28;;;7.37
71960;BMP280;59832;51.146;14.024;2024-02-14T13:34:34;98410.81;;;7.55
71960;BMP280;59832;51.146;14.024;2024-02-14T13:37:01;98406.06;;;7.42
71960;BMP280;59832;51.146;14.024;2024-02-14T13:39:28;98415.44;;;7.41
71960;BMP280;59832;51.146;14.024;2024-02-14T13:41:55;98410.81;;;7.55
71960;BMP280;59832;51.146;14.024;2024-02-14T13:44:24;98415.69;;;7.60
71960;BMP280;59832;51.146;14.024;2024-02-14T13:46:51;98415.78;;;7.52
71960;BMP280;59832;51.146;14.024;2024-02-14T13:49:19;98416.56;;;7.44
71960;BMP280;59832;51.146;14.024;2024-02-14T13:51:50;98426.84;;;7.47
71960;BMP280;59832;51.146;14.024;2024-02-14T13:54:18;98416.56;;;7.44
71960;BMP280;59832;51.146;14.024;2024-02-14T13:56:45;98425.56;;;7.41
71960;BMP280;59832;51.146;14.024;2024-02-14T13:59:12;98430.94;;;7.40
71960;BMP280;59832;51.146;14.024;2024-02-14T14:01:38;98429.91;;;7.41
71960;BMP280;59832;51.146;14.024;2024-02-14T14:04:05;98428.25;;;7.36
71960;BMP280;59832;51.146;14.024;2024-02-14T14:06:31;98432.16;;;7.34
71960;BMP280;59832;51.146;14.024;2024-02-14T14:08:58;98433.25;;;7.45
71960;BMP280;59832;51.146;14.024;2024-02-14T14:11:25;98437.25;;;7.66
71960;BMP280;59832;51.146;14.024;2024-02-14T14:13:52;98435.25;;;7.72